Amman, Jordan
Current Conditions -  °F | °C
As of 12:00 PM on Friday 24 Oct 2014 (Local Time) from OJAM Reporting Station
Clear Clear  
Wind Chill: 70°   Ceiling: Unl
Heat Index: 70°   Visibility: 4mi
Dew Point: 43°   Wind: 5mph
Humidity: 38%   Direction: 50°NE
Pressure: 30.15"   Gusts: NA
Location:  31.95°N, 35.93°E
Report Text: OJAM 240900Z 05004KT 6000 NSC 21/06 Q1021 NOSIG
Loading
Personal Weather Stations






























Interactive Weather Map
Tropical Storm Tracking
New forecast layout! Learn more

10-Day Weather Forecast

Advertisements
Track Severe Weather on mobile